Terminal Aerodrome Forecast
Issued by NWS Norman, OK

Home | Current Version | Previous Version | Text Only | Print | Product List | Glossary On
Versions: 1 2 3 4 5 6 7 8 9 10 11 12 13 14 15 16
000
FTUS44 KOUN 170529
TAFOKC
TAF
KOKC 170529Z 1706/1806 VRB04KT P6SM BKN100 BKN200
      TEMPO 1710/1713 4SM BR
     FM171500 35007KT P6SM SCT150
     FM180300 12005KT P6SM SCT250=

USA.gov is the U.S. government's official web portal to all federal, state and local government web resources and services.